createdAt,value
2018-12-28T00:00:31.252Z,21.70
2018-12-28T00:03:17.249Z,19.30
2018-12-28T00:06:03.035Z,21.48
2018-12-28T00:08:36.266Z,21.30
2018-12-28T00:11:30.160Z,20.30
2018-12-28T00:14:18.491Z,21.23
2018-12-28T00:19:51.346Z,24.03
2018-12-28T00:22:36.960Z,24.40
2018-12-28T00:25:10.579Z,25.30
2018-12-28T00:28:02.988Z,25.60
2018-12-28T00:36:52.562Z,28.83
2018-12-28T00:39:35.719Z,30.20
2018-12-28T00:42:21.505Z,32.60
2018-12-28T00:45:05.855Z,27.30
2018-12-28T00:47:50.301Z,25.40
2018-12-28T00:50:34.818Z,28.55
2018-12-28T00:59:13.005Z,26.03
2018-12-28T01:07:58.859Z,26.90
2018-12-28T01:16:42.833Z,28.20
2018-12-28T01:19:26.946Z,29.47
2018-12-28T01:22:10.312Z,29.17
2018-12-28T01:24:58.360Z,28.57
2018-12-28T01:27:45.027Z,31.03
2018-12-28T01:30:32.777Z,33.87
2018-12-28T01:33:17.351Z,34.47
2018-12-28T01:36:04.016Z,31.30
2018-12-28T01:41:31.851Z,30.27
2018-12-28T01:44:15.629Z,32.00
2018-12-28T01:47:02.220Z,32.57
2018-12-28T01:49:46.639Z,29.73
2018-12-28T01:52:31.729Z,29.93
2018-12-28T01:55:16.558Z,32.67
2018-12-28T01:57:59.869Z,33.13
2018-12-28T02:00:47.995Z,34.00
2018-12-28T02:03:31.096Z,34.57
2018-12-28T02:06:13.750Z,33.63
2018-12-28T02:11:57.001Z,32.60
2018-12-28T02:14:39.980Z,34.53
2018-12-28T02:17:23.024Z,33.43
2018-12-28T02:20:06.184Z,32.40
2018-12-28T02:22:49.857Z,33.37
2018-12-28T02:25:33.041Z,34.57
2018-12-28T02:28:17.701Z,33.83
2018-12-28T02:31:00.956Z,32.73
2018-12-28T02:33:48.239Z,31.30
2018-12-28T02:36:32.881Z,31.97
2018-12-28T02:39:21.655Z,33.87
2018-12-28T02:42:04.839Z,34.20
2018-12-28T02:45:08.443Z,34.07
2018-12-28T02:47:37.872Z,34.00
2018-12-28T02:50:24.054Z,34.27
2018-12-28T02:53:08.986Z,37.23
2018-12-28T02:55:52.908Z,34.30
2018-12-28T03:01:14.628Z,35.60
2018-12-28T03:04:08.196Z,35.70
2018-12-28T03:06:52.837Z,36.17
2018-12-28T03:09:44.328Z,33.40
2018-12-28T03:12:22.419Z,34.23
2018-12-28T03:15:07.171Z,37.23
2018-12-28T03:17:50.867Z,40.23
2018-12-28T03:20:34.942Z,36.23
2018-12-28T03:23:19.552Z,34.87
2018-12-28T03:26:04.836Z,34.17
2018-12-28T03:28:48.398Z,35.37
2018-12-28T03:31:32.331Z,35.07
2018-12-28T03:34:18.432Z,34.50
2018-12-28T03:37:03.201Z,33.20
2018-12-28T03:39:52.526Z,34.13
2018-12-28T03:42:39.334Z,34.10
2018-12-28T03:45:22.334Z,34.73
2018-12-28T03:48:07.828Z,35.33
2018-12-28T03:50:50.984Z,32.87
2018-12-28T03:53:33.988Z,34.47
2018-12-28T03:56:18.225Z,35.73
2018-12-28T03:59:01.725Z,35.73
2018-12-28T04:01:47.009Z,35.30
2018-12-28T04:04:29.983Z,34.83
2018-12-28T04:07:13.260Z,30.50
2018-12-28T04:10:00.398Z,33.55
2018-12-28T04:12:41.416Z,28.40
2018-12-28T04:18:31.542Z,30.90
2018-12-28T04:21:16.639Z,31.82
2018-12-28T04:23:59.941Z,27.67
2018-12-28T04:26:45.344Z,26.03
2018-12-28T04:29:33.283Z,26.13
2018-12-28T04:32:18.535Z,27.40
2018-12-28T04:35:02.083Z,26.20
2018-12-28T04:37:45.599Z,25.77
2018-12-28T04:40:29.460Z,27.20
2018-12-28T04:43:14.165Z,30.25
2018-12-28T04:45:57.996Z,29.33
2018-12-28T04:51:38.568Z,27.90
2018-12-28T04:54:23.316Z,27.43
2018-12-28T04:57:07.152Z,28.03
2018-12-28T04:59:50.185Z,26.50
2018-12-28T05:02:33.952Z,24.90
2018-12-28T05:05:17.328Z,25.85
2018-12-28T05:08:02.829Z,24.30
2018-12-28T05:14:05.910Z,21.97
2018-12-28T05:16:50.071Z,22.13
2018-12-28T05:19:33.829Z,22.37
2018-12-28T05:22:17.042Z,23.37
2018-12-28T05:25:03.896Z,23.23
2018-12-28T05:27:48.234Z,22.03
2018-12-28T05:30:32.305Z,22.43
2018-12-28T05:33:15.800Z,23.17
2018-12-28T05:35:59.273Z,26.53
2018-12-28T05:38:42.071Z,25.60
2018-12-28T05:41:26.002Z,24.90
2018-12-28T05:44:12.397Z,23.80
2018-12-28T05:46:56.351Z,24.67
2018-12-28T05:49:41.379Z,25.00
2018-12-28T05:52:24.395Z,25.40
2018-12-28T05:55:07.401Z,25.73
2018-12-28T05:57:40.857Z,24.60
2018-12-28T06:00:32.367Z,23.10
2018-12-28T06:03:16.110Z,23.60
2018-12-28T06:05:59.226Z,23.67
2018-12-28T06:08:42.756Z,24.50
2018-12-28T06:11:28.001Z,24.60
2018-12-28T06:14:11.383Z,26.37
2018-12-28T06:16:54.282Z,24.80
2018-12-28T06:19:37.555Z,26.40
2018-12-28T06:22:21.014Z,26.03
2018-12-28T06:25:03.967Z,29.00
2018-12-28T06:27:47.022Z,25.27
2018-12-28T06:30:40.539Z,24.90
2018-12-28T06:33:25.265Z,25.77
2018-12-28T06:36:11.563Z,25.30
2018-12-28T06:38:55.098Z,25.33
2018-12-28T06:41:38.332Z,25.17
2018-12-28T06:44:21.122Z,25.60
2018-12-28T06:47:07.591Z,25.43
2018-12-28T06:49:49.985Z,25.57
2018-12-28T06:52:33.072Z,25.13
2018-12-28T06:55:18.569Z,24.90
2018-12-28T06:58:01.944Z,25.90
2018-12-28T07:00:46.932Z,27.13
2018-12-28T07:03:30.359Z,27.97
2018-12-28T07:06:14.396Z,38.77
2018-12-28T07:08:57.473Z,51.43
2018-12-28T07:11:41.609Z,54.47
2018-12-28T07:14:25.018Z,57.30
2018-12-28T07:17:08.499Z,55.87
2018-12-28T07:19:56.229Z,68.23
2018-12-28T07:22:42.707Z,103.75
2018-12-28T07:25:26.801Z,87.97
2018-12-28T07:28:09.828Z,90.23
2018-12-28T07:30:53.705Z,93.50
2018-12-28T07:33:38.341Z,102.40
2018-12-28T07:36:48.165Z,83.70
2018-12-28T07:39:31.523Z,98.87
2018-12-28T07:42:24.574Z,81.63
2018-12-28T07:45:10.473Z,106.97
2018-12-28T07:47:54.017Z,108.13
2018-12-28T07:50:37.413Z,108.17
2018-12-28T07:53:20.993Z,114.97
2018-12-28T07:56:04.211Z,93.58
2018-12-28T07:58:55.461Z,73.70
2018-12-28T08:01:39.024Z,55.73
2018-12-28T08:07:46.952Z,65.37
2018-12-28T08:10:34.597Z,62.20
2018-12-28T08:13:18.547Z,51.63
2018-12-28T08:16:02.037Z,46.43
2018-12-28T08:18:45.355Z,42.17
2018-12-28T08:21:30.020Z,40.27
2018-12-28T08:24:14.360Z,44.30
2018-12-28T08:27:00.353Z,38.30
2018-12-28T08:30:24.036Z,40.40
2018-12-28T08:32:55.683Z,37.37
2018-12-28T08:35:39.228Z,35.17
2018-12-28T08:41:35.069Z,36.17
2018-12-28T08:44:21.896Z,36.33
2018-12-28T08:47:06.389Z,37.07
2018-12-28T08:49:49.984Z,34.90
2018-12-28T08:52:33.253Z,34.83
2018-12-28T08:55:18.460Z,36.00
2018-12-28T08:58:04.475Z,34.87
2018-12-28T09:00:50.383Z,35.83
2018-12-28T09:03:32.905Z,36.77
2018-12-28T09:06:35.321Z,37.33
2018-12-28T09:09:14.696Z,40.43
2018-12-28T09:12:15.295Z,37.43
2018-12-28T09:14:46.054Z,41.20
2018-12-28T09:17:31.064Z,38.13
2018-12-28T09:20:17.515Z,38.30
2018-12-28T09:23:01.006Z,38.63
2018-12-28T09:25:43.927Z,43.38
2018-12-28T09:28:27.653Z,41.47
2018-12-28T09:31:11.094Z,41.67
2018-12-28T09:33:54.514Z,40.70
2018-12-28T09:36:38.071Z,39.70
2018-12-28T09:39:22.568Z,37.07
2018-12-28T09:42:08.630Z,40.87
2018-12-28T09:47:56.118Z,45.25
2018-12-28T09:50:42.448Z,42.60
2018-12-28T09:53:33.469Z,44.33
2018-12-28T09:56:17.148Z,46.20
2018-12-28T09:59:05.422Z,47.93
2018-12-28T10:01:58.311Z,51.60
2018-12-28T10:04:37.780Z,65.23
2018-12-28T10:07:23.125Z,95.30
2018-12-28T10:10:06.493Z,182.00
2018-12-28T10:13:19.248Z,149.33
2018-12-28T10:16:28.878Z,103.00
2018-12-28T10:19:16.971Z,112.60
2018-12-28T10:22:01.570Z,83.55
2018-12-28T10:24:50.583Z,84.10
2018-12-28T10:27:35.055Z,56.77
2018-12-28T10:30:21.501Z,63.40
2018-12-28T10:33:16.207Z,57.63
2018-12-28T10:36:03.915Z,57.07
2018-12-28T10:38:48.188Z,53.97
2018-12-28T10:41:38.631Z,55.93
2018-12-28T10:44:19.301Z,50.83
2018-12-28T10:47:05.036Z,45.67
2018-12-28T10:49:51.405Z,46.73
2018-12-28T10:52:34.569Z,47.03
2018-12-28T10:55:21.036Z,48.70
2018-12-28T10:57:58.588Z,50.63
2018-12-28T11:00:50.316Z,47.17
2018-12-28T11:03:34.676Z,47.13
2018-12-28T11:06:20.467Z,51.88
2018-12-28T11:11:56.861Z,49.10
2018-12-28T11:14:42.812Z,54.43
2018-12-28T11:20:11.336Z,61.43
2018-12-28T11:22:55.931Z,58.73
2018-12-28T11:25:44.575Z,59.87
2018-12-28T11:28:31.096Z,61.57
2018-12-28T11:31:16.534Z,69.07
2018-12-28T11:34:02.639Z,69.70
2018-12-28T11:36:55.918Z,80.67
2018-12-28T11:39:41.667Z,76.73
2018-12-28T11:42:27.921Z,73.57
2018-12-28T11:48:21.001Z,73.87
2018-12-28T11:54:11.312Z,75.97
2018-12-28T11:57:04.467Z,79.00
2018-12-28T11:59:51.470Z,74.30
2018-12-28T12:30:12.179Z,39.33
2018-12-28T12:39:03.265Z,41.50
2018-12-28T12:47:52.077Z,35.63
2018-12-28T13:14:45.188Z,46.77
2018-12-28T13:35:49.824Z,52.67
2018-12-28T13:38:33.630Z,42.80
2018-12-28T13:41:16.199Z,40.17
2018-12-28T13:47:07.060Z,34.77
2018-12-28T13:49:53.029Z,32.33
2018-12-28T13:59:02.200Z,31.97
2018-12-28T14:04:47.534Z,32.97
2018-12-28T14:07:30.152Z,35.57
2018-12-28T14:10:15.607Z,34.00
2018-12-28T14:13:00.235Z,28.57
2018-12-28T14:15:43.506Z,28.00
2018-12-28T14:18:26.509Z,22.10
2018-12-28T14:21:09.623Z,20.77
2018-12-28T14:23:52.567Z,23.63
2018-12-28T14:26:40.416Z,19.10
2018-12-28T14:29:29.340Z,15.43
2018-12-28T14:32:16.154Z,14.73
2018-12-28T14:35:01.180Z,16.77
2018-12-28T14:37:47.800Z,20.33
2018-12-28T14:40:21.179Z,16.70
2018-12-28T14:46:11.900Z,15.40
2018-12-28T14:48:54.957Z,19.87
2018-12-28T14:51:42.824Z,21.27
2018-12-28T14:54:26.602Z,20.23
2018-12-28T14:57:09.142Z,19.43
2018-12-28T14:59:53.908Z,19.53
2018-12-28T15:02:37.826Z,21.83
2018-12-28T15:05:21.093Z,21.48
2018-12-28T15:08:06.032Z,20.87
2018-12-28T15:10:49.349Z,22.20
2018-12-28T15:13:32.955Z,31.17
2018-12-28T15:16:19.523Z,33.40
2018-12-28T15:19:02.996Z,27.07
2018-12-28T15:21:46.964Z,25.97
2018-12-28T15:24:30.648Z,24.77
2018-12-28T15:27:13.958Z,27.47
2018-12-28T15:29:57.651Z,35.57
2018-12-28T15:32:41.007Z,35.13
2018-12-28T15:35:23.943Z,42.77
2018-12-28T15:38:07.415Z,49.60
2018-12-28T15:40:41.047Z,54.98
2018-12-28T15:46:28.795Z,50.17
2018-12-28T15:49:16.324Z,39.83
2018-12-28T15:51:59.167Z,33.13
2018-12-28T15:54:42.278Z,38.63
2018-12-28T15:57:25.578Z,30.60
2018-12-28T16:00:09.006Z,27.80
2018-12-28T16:02:52.075Z,26.23
2018-12-28T16:05:34.974Z,29.30
2018-12-28T16:08:19.213Z,28.53
2018-12-28T16:11:07.623Z,22.90
2018-12-28T16:13:50.595Z,24.50
2018-12-28T16:16:35.939Z,26.97
2018-12-28T16:19:20.269Z,26.87
2018-12-28T16:22:06.039Z,25.50
2018-12-28T16:24:49.559Z,24.73
2018-12-28T16:27:34.628Z,25.30
2018-12-28T16:30:18.812Z,25.53
2018-12-28T16:33:06.286Z,20.27
2018-12-28T16:35:49.808Z,20.67
2018-12-28T16:39:04.440Z,22.52
2018-12-28T16:41:27.216Z,21.07
2018-12-28T16:44:14.195Z,25.03
2018-12-28T16:46:56.908Z,23.10
2018-12-28T16:49:40.996Z,18.83
2018-12-28T16:52:25.050Z,24.13
2018-12-28T16:55:09.133Z,19.93
2018-12-28T16:57:52.139Z,17.37
2018-12-28T17:00:35.904Z,16.63
2018-12-28T17:03:18.988Z,24.37
2018-12-28T17:06:04.835Z,18.03
2018-12-28T17:08:48.083Z,18.87
2018-12-28T17:11:32.647Z,16.83
2018-12-28T17:14:17.153Z,16.10
2018-12-28T17:17:00.924Z,14.60
2018-12-28T17:19:43.996Z,16.23
2018-12-28T17:22:27.896Z,16.50
2018-12-28T17:25:11.335Z,17.47
2018-12-28T17:27:55.473Z,17.10
2018-12-28T17:30:40.042Z,18.50
2018-12-28T17:33:23.939Z,17.53
2018-12-28T17:36:07.955Z,14.30
2018-12-28T17:38:53.271Z,14.80
2018-12-28T17:41:36.292Z,15.17
2018-12-28T17:44:20.543Z,18.20
2018-12-28T17:47:03.740Z,18.33
2018-12-28T17:49:52.323Z,17.17
2018-12-28T17:52:36.202Z,18.03
2018-12-28T17:55:19.997Z,16.87
2018-12-28T17:58:16.452Z,16.55
2018-12-28T18:01:04.678Z,20.23
2018-12-28T18:03:48.634Z,20.33
2018-12-28T18:06:36.448Z,19.60
2018-12-28T18:09:20.058Z,17.83
2018-12-28T18:12:03.619Z,17.23
2018-12-28T18:14:48.920Z,17.57
2018-12-28T18:17:34.252Z,17.10
2018-12-28T18:20:18.235Z,16.33
2018-12-28T18:23:02.535Z,16.10
2018-12-28T18:25:46.505Z,14.70
2018-12-28T18:28:33.498Z,15.33
2018-12-28T18:31:16.516Z,14.63
2018-12-28T18:34:01.491Z,14.50
2018-12-28T18:39:31.528Z,16.07
2018-12-28T18:42:16.009Z,17.80
2018-12-28T18:48:05.627Z,17.37
2018-12-28T18:50:50.576Z,19.37
2018-12-28T18:53:27.413Z,17.73
2018-12-28T19:02:15.291Z,17.33
2018-12-28T19:04:58.976Z,16.33
2018-12-28T19:07:42.274Z,15.13
2018-12-28T19:10:25.757Z,15.63
2018-12-28T19:13:09.042Z,15.87
2018-12-28T19:15:54.392Z,16.23
2018-12-28T19:18:37.349Z,16.40
2018-12-28T19:21:20.074Z,19.67
2018-12-28T19:24:06.063Z,16.15
2018-12-28T19:26:51.088Z,15.07
2018-12-28T19:29:34.043Z,14.50
2018-12-28T19:32:22.562Z,20.30
2018-12-28T19:35:05.705Z,15.37
2018-12-28T19:37:49.070Z,16.10
2018-12-28T19:40:34.037Z,15.03
2018-12-28T19:43:16.997Z,12.68
2018-12-28T19:46:00.029Z,13.30
2018-12-28T19:48:44.733Z,19.90
2018-12-28T19:51:28.374Z,19.52
2018-12-28T19:54:11.624Z,18.37
2018-12-28T19:56:55.187Z,19.73
2018-12-28T19:59:38.724Z,20.20
2018-12-28T20:02:59.085Z,21.70
2018-12-28T20:05:28.896Z,21.03
2018-12-28T20:08:13.340Z,21.07
2018-12-28T20:10:56.933Z,22.13
2018-12-28T20:13:40.066Z,23.07
2018-12-28T20:16:24.999Z,25.37
2018-12-28T20:19:09.694Z,21.87
2018-12-28T20:21:53.023Z,20.88
2018-12-28T20:24:36.263Z,23.70
2018-12-28T20:27:19.929Z,25.00
2018-12-28T20:30:03.059Z,24.90
2018-12-28T20:32:48.772Z,26.90
2018-12-28T20:35:32.203Z,27.02
2018-12-28T20:38:17.248Z,26.57
2018-12-28T20:41:00.304Z,26.50
2018-12-28T20:43:45.894Z,25.50
2018-12-28T20:46:30.387Z,29.57
2018-12-28T20:49:13.887Z,27.70
2018-12-28T20:54:41.591Z,29.93
2018-12-28T20:57:31.153Z,29.82
2018-12-28T21:00:15.971Z,29.25
2018-12-28T21:02:59.451Z,32.30
2018-12-28T21:05:42.911Z,31.57
2018-12-28T21:08:26.073Z,32.10
2018-12-28T21:11:11.501Z,34.63
2018-12-28T21:13:54.420Z,32.93
2018-12-28T21:16:37.971Z,32.60
2018-12-28T21:19:21.048Z,32.20
2018-12-28T21:22:04.952Z,34.48
2018-12-28T21:24:48.079Z,31.90
2018-12-28T21:27:31.720Z,31.93
2018-12-28T21:30:15.174Z,31.50
2018-12-28T21:32:59.406Z,31.73
2018-12-28T21:35:42.354Z,36.93
2018-12-28T21:38:25.817Z,31.42
2018-12-28T21:41:09.192Z,32.83
2018-12-28T21:43:52.862Z,34.08
2018-12-28T21:46:36.036Z,43.25
2018-12-28T21:49:19.313Z,34.50
2018-12-28T21:52:03.433Z,37.40
2018-12-28T21:54:47.203Z,47.10
2018-12-28T21:57:30.746Z,53.80
2018-12-28T22:00:14.799Z,43.90
2018-12-28T22:02:58.879Z,54.37
2018-12-28T22:06:07.540Z,35.98
2018-12-28T22:08:34.205Z,34.73
2018-12-28T22:11:17.709Z,32.43
2018-12-28T22:14:27.506Z,33.20
2018-12-28T22:16:57.414Z,35.27
2018-12-28T22:19:44.130Z,33.02
2018-12-28T22:25:25.397Z,37.20
2018-12-28T22:28:08.134Z,35.97
2018-12-28T22:30:52.274Z,37.50
2018-12-28T22:33:36.694Z,37.70
2018-12-28T22:44:49.865Z,39.23
2018-12-28T22:47:33.073Z,35.70
2018-12-28T22:50:19.930Z,37.63
2018-12-28T22:53:03.205Z,37.17
2018-12-28T22:55:48.056Z,40.53
2018-12-28T22:58:31.632Z,38.77
2018-12-28T23:01:14.499Z,40.57
2018-12-28T23:03:57.895Z,40.80
2018-12-28T23:06:41.297Z,40.07
2018-12-28T23:09:24.789Z,40.23
2018-12-28T23:12:08.644Z,39.77
2018-12-28T23:14:53.190Z,40.23
2018-12-28T23:17:36.381Z,40.23
2018-12-28T23:20:20.867Z,40.43
2018-12-28T23:23:04.171Z,40.83
2018-12-28T23:25:47.982Z,42.53
2018-12-28T23:28:30.632Z,44.90
2018-12-28T23:31:13.835Z,44.67
2018-12-28T23:33:48.945Z,47.30
2018-12-28T23:39:36.578Z,47.87
2018-12-28T23:42:19.849Z,46.83
2018-12-28T23:45:05.628Z,44.57
2018-12-28T23:47:49.296Z,46.47
2018-12-28T23:50:32.319Z,43.90
2018-12-28T23:53:15.679Z,45.20
2018-12-28T23:55:58.820Z,46.23
